sensor_id;sensor_type;location;lat;lon;timestamp;pressure;altitude;pressure_sealevel;temperature;humidity
37610;BME280;23457;51.966;8.230;2022-07-19T00:02:10;101227.25;;;21.86;62.23
37610;BME280;23457;51.966;8.230;2022-07-19T00:04:37;101237.63;;;21.95;61.47
37610;BME280;23457;51.966;8.230;2022-07-19T00:07:04;101226.16;;;21.94;61.92
37610;BME280;23457;51.966;8.230;2022-07-19T00:09:30;101231.53;;;21.91;62.38
37610;BME280;23457;51.966;8.230;2022-07-19T00:11:57;101225.41;;;21.89;61.76
37610;BME280;23457;51.966;8.230;2022-07-19T00:14:24;101232.34;;;21.95;62.14
37610;BME280;23457;51.966;8.230;2022-07-19T00:16:50;101225.56;;;21.81;62.99
37610;BME280;23457;51.966;8.230;2022-07-19T00:19:17;101221.16;;;21.82;62.95
37610;BME280;23457;51.966;8.230;2022-07-19T00:21:44;101216.59;;;21.89;62.70
37610;BME280;23457;51.966;8.230;2022-07-19T00:24:10;101218.41;;;21.87;62.34
37610;BME280;23457;51.966;8.230;2022-07-19T00:26:37;101218.34;;;21.90;62.48
37610;BME280;23457;51.966;8.230;2022-07-19T00:29:03;101214.16;;;21.79;63.15
37610;BME280;23457;51.966;8.230;2022-07-19T00:31:30;101224.56;;;21.47;63.16
37610;BME280;23457;51.966;8.230;2022-07-19T00:33:57;101222.22;;;21.32;63.68
37610;BME280;23457;51.966;8.230;2022-07-19T00:36:24;101220.66;;;21.23;64.13
37610;BME280;23457;51.966;8.230;2022-07-19T00:38:50;101230.34;;;21.23;64.48
37610;BME280;23457;51.966;8.230;2022-07-19T00:41:17;101236.47;;;21.26;64.80
37610;BME280;23457;51.966;8.230;2022-07-19T00:43:44;101242.38;;;21.39;65.10
37610;BME280;23457;51.966;8.230;2022-07-19T00:46:20;101238.31;;;20.72;66.54
37610;BME280;23457;51.966;8.230;2022-07-19T00:48:49;101239.44;;;20.57;67.47
37610;BME280;23457;51.966;8.230;2022-07-19T00:51:17;101235.81;;;20.64;66.96
37610;BME280;23457;51.966;8.230;2022-07-19T00:53:45;101234.56;;;20.85;67.57
37610;BME280;23457;51.966;8.230;2022-07-19T00:56:12;101234.31;;;20.50;68.01
37610;BME280;23457;51.966;8.230;2022-07-19T00:58:40;101228.50;;;20.26;68.95
37610;BME280;23457;51.966;8.230;2022-07-19T01:01:08;101231.72;;;20.45;68.18
37610;BME280;23457;51.966;8.230;2022-07-19T01:03:39;101226.31;;;20.53;68.45
37610;BME280;23457;51.966;8.230;2022-07-19T01:06:07;101226.97;;;20.65;68.59
37610;BME280;23457;51.966;8.230;2022-07-19T01:08:36;101231.50;;;20.59;67.99
37610;BME280;23457;51.966;8.230;2022-07-19T01:11:05;101237.81;;;20.50;68.76
37610;BME280;23457;51.966;8.230;2022-07-19T01:13:33;101227.91;;;20.63;68.21
37610;BME280;23457;51.966;8.230;2022-07-19T01:16:00;101231.72;;;20.45;68.72
37610;BME280;23457;51.966;8.230;2022-07-19T01:18:26;101226.31;;;20.53;68.84
37610;BME280;23457;51.966;8.230;2022-07-19T01:20:53;101229.72;;;20.61;68.91
37610;BME280;23457;51.966;8.230;2022-07-19T01:23:20;101228.84;;;20.59;68.49
37610;BME280;23457;51.966;8.230;2022-07-19T01:25:46;101222.84;;;20.51;68.30
37610;BME280;23457;51.966;8.230;2022-07-19T01:28:13;101223.66;;;20.53;68.53
37610;BME280;23457;51.966;8.230;2022-07-19T01:30:39;101222.72;;;20.57;68.88
37610;BME280;23457;51.966;8.230;2022-07-19T01:33:06;101225.38;;;20.57;69.35
37610;BME280;23457;51.966;8.230;2022-07-19T01:35:33;101226.47;;;20.44;69.71
37610;BME280;23457;51.966;8.230;2022-07-19T01:37:59;101222.19;;;20.33;70.41
37610;BME280;23457;51.966;8.230;2022-07-19T01:40:26;101226.50;;;20.41;69.88
37610;BME280;23457;51.966;8.230;2022-07-19T01:42:53;101223.09;;;20.35;69.66
37610;BME280;23457;51.966;8.230;2022-07-19T01:45:20;101223.09;;;20.32;69.20
37610;BME280;23457;51.966;8.230;2022-07-19T01:47:48;101223.63;;;19.99;70.21
37610;BME280;23457;51.966;8.230;2022-07-19T01:50:16;101236.84;;;19.96;70.51
37610;BME280;23457;51.966;8.230;2022-07-19T01:52:43;101223.66;;;19.96;70.53
37610;BME280;23457;51.966;8.230;2022-07-19T01:55:16;101236.47;;;20.22;69.85
37610;BME280;23457;51.966;8.230;2022-07-19T01:57:42;101235.75;;;20.12;70.37
37610;BME280;23457;51.966;8.230;2022-07-19T02:00:10;101246.34;;;20.09;71.11
37610;BME280;23457;51.966;8.230;2022-07-19T02:02:37;101242.78;;;20.13;70.39
37610;BME280;23457;51.966;8.230;2022-07-19T02:05:04;101242.69;;;20.16;70.52
37610;BME280;23457;51.966;8.230;2022-07-19T02:07:31;101242.19;;;19.90;70.46
37610;BME280;23457;51.966;8.230;2022-07-19T02:09:58;101237.22;;;19.70;71.57
37610;BME280;23457;51.966;8.230;2022-07-19T02:12:25;101241.53;;;19.76;71.36
37610;BME280;23457;51.966;8.230;2022-07-19T02:14:52;101234.63;;;19.64;71.72
37610;BME280;23457;51.966;8.230;2022-07-19T02:17:18;101237.16;;;19.75;72.23
37610;BME280;23457;51.966;8.230;2022-07-19T02:19:45;101237.31;;;19.62;72.35
37610;BME280;23457;51.966;8.230;2022-07-19T02:22:11;101238.97;;;19.70;72.29
37610;BME280;23457;51.966;8.230;2022-07-19T02:24:38;101239.72;;;19.79;72.48
37610;BME280;23457;51.966;8.230;2022-07-19T02:27:10;101232.06;;;19.62;73.10
37610;BME280;23457;51.966;8.230;2022-07-19T02:29:37;101221.47;;;19.64;72.34
37610;BME280;23457;51.966;8.230;2022-07-19T02:32:04;101221.06;;;19.24;73.57
37610;BME280;23457;51.966;8.230;2022-07-19T02:34:32;101221.09;;;19.21;74.43
37610;BME280;23457;51.966;8.230;2022-07-19T02:36:58;101219.94;;;19.43;73.68
37610;BME280;23457;51.966;8.230;2022-07-19T02:39:25;101225.47;;;19.23;74.16
37610;BME280;23457;51.966;8.230;2022-07-19T02:41:51;101226.25;;;19.30;73.47
37610;BME280;23457;51.966;8.230;2022-07-19T02:44:18;101222.75;;;19.29;73.51
37610;BME280;23457;51.966;8.230;2022-07-19T02:46:44;101225.50;;;19.20;73.53
37610;BME280;23457;51.966;8.230;2022-07-19T02:49:11;101227.38;;;19.09;73.91
37610;BME280;23457;51.966;8.230;2022-07-19T02:51:38;101225.50;;;19.20;73.68
37610;BME280;23457;51.966;8.230;2022-07-19T02:54:04;101225.56;;;19.13;73.42
37610;BME280;23457;51.966;8.230;2022-07-19T02:56:31;101225.13;;;18.71;74.73
37610;BME280;23457;51.966;8.230;2022-07-19T02:58:57;101231.31;;;18.66;75.29
37610;BME280;23457;51.966;8.230;2022-07-19T03:01:24;101234.03;;;18.58;75.28
37610;BME280;23457;51.966;8.230;2022-07-19T03:03:50;101239.50;;;18.24;76.98
37610;BME280;23457;51.966;8.230;2022-07-19T03:06:18;101243.03;;;18.23;77.26
37610;BME280;23457;51.966;8.230;2022-07-19T03:08:45;101235.19;;;18.13;77.67
37610;BME280;23457;51.966;8.230;2022-07-19T03:11:12;101243.06;;;18.22;76.69
37610;BME280;23457;51.966;8.230;2022-07-19T03:13:38;101230.69;;;18.35;76.31
37610;BME280;23457;51.966;8.230;2022-07-19T03:16:05;101235.00;;;18.39;75.27
37610;BME280;23457;51.966;8.230;2022-07-19T03:18:32;101232.69;;;17.96;77.00
37610;BME280;23457;51.966;8.230;2022-07-19T03:20:59;101228.31;;;17.97;77.58
37610;BME280;23457;51.966;8.230;2022-07-19T03:23:27;101230.72;;;18.24;76.97
37610;BME280;23457;51.966;8.230;2022-07-19T03:25:54;101232.44;;;18.31;76.63
37610;BME280;23457;51.966;8.230;2022-07-19T03:28:21;101240.19;;;18.51;75.97
37610;BME280;23457;51.966;8.230;2022-07-19T03:30:47;101238.34;;;18.62;75.10
37610;BME280;23457;51.966;8.230;2022-07-19T03:33:14;101233.13;;;18.59;74.86
37610;BME280;23457;51.966;8.230;2022-07-19T03:35:43;101230.63;;;18.41;75.23
37610;BME280;23457;51.966;8.230;2022-07-19T03:38:11;101219.47;;;18.05;76.93
37610;BME280;23457;51.966;8.230;2022-07-19T03:40:38;101232.44;;;18.31;76.19
37610;BME280;23457;51.966;8.230;2022-07-19T03:43:06;101244.63;;;18.47;75.67
37610;BME280;23457;51.966;8.230;2022-07-19T03:45:33;101237.53;;;18.54;75.49
37610;BME280;23457;51.966;8.230;2022-07-19T03:48:00;101235.91;;;18.38;75.82
37610;BME280;23457;51.966;8.230;2022-07-19T03:50:27;101243.69;;;18.51;76.25
37610;BME280;23457;51.966;8.230;2022-07-19T03:52:54;101235.84;;;18.48;76.75
37610;BME280;23457;51.966;8.230;2022-07-19T03:55:21;101230.63;;;18.41;76.31
37610;BME280;23457;51.966;8.230;2022-07-19T03:57:47;101237.69;;;18.36;76.26
37610;BME280;23457;51.966;8.230;2022-07-19T04:00:14;101237.72;;;18.33;76.07
37610;BME280;23457;51.966;8.230;2022-07-19T04:02:40;101233.41;;;18.21;76.52
37610;BME280;23457;51.966;8.230;2022-07-19T04:05:09;101248.31;;;18.20;76.99
37610;BME280;23457;51.966;8.230;2022-07-19T04:07:35;101245.59;;;18.36;77.40
37610;BME280;23457;51.966;8.230;2022-07-19T04:10:02;101242.00;;;18.44;77.00
37610;BME280;23457;51.966;8.230;2022-07-19T04:12:29;101241.03;;;18.56;76.47
37610;BME280;23457;51.966;8.230;2022-07-19T04:14:56;101239.28;;;18.52;76.22
37610;BME280;23457;51.966;8.230;2022-07-19T04:17:22;101243.06;;;18.17;76.64
37610;BME280;23457;51.966;8.230;2022-07-19T04:19:50;101245.72;;;18.16;77.19
37610;BME280;23457;51.966;8.230;2022-07-19T04:22:17;101242.88;;;18.42;76.82
37610;BME280;23457;51.966;8.230;2022-07-19T04:24:43;101237.53;;;18.58;76.50
37610;BME280;23457;51.966;8.230;2022-07-19T04:27:10;101235.66;;;18.73;75.92
37610;BME280;23457;51.966;8.230;2022-07-19T04:29:37;101240.81;;;18.83;75.20
37610;BME280;23457;51.966;8.230;2022-07-19T04:32:04;101239.75;;;19.01;74.53
37610;BME280;23457;51.966;8.230;2022-07-19T04:34:31;101238.94;;;18.94;74.14
37610;BME280;23457;51.966;8.230;2022-07-19T04:36:57;101240.59;;;19.02;73.87
37610;BME280;23457;51.966;8.230;2022-07-19T04:39:24;101238.00;;;19.00;73.84
37610;BME280;23457;51.966;8.230;2022-07-19T04:41:50;101235.34;;;19.02;73.80
37610;BME280;23457;51.966;8.230;2022-07-19T04:44:17;101239.69;;;19.07;73.09
37610;BME280;23457;51.966;8.230;2022-07-19T04:46:43;101243.09;;;19.17;73.30
37610;BME280;23457;51.966;8.230;2022-07-19T04:49:13;101243.13;;;19.14;73.61
37610;BME280;23457;51.966;8.230;2022-07-19T04:51:40;101240.44;;;19.18;73.21
37610;BME280;23457;51.966;8.230;2022-07-19T04:54:06;101248.16;;;19.37;73.65
37610;BME280;23457;51.966;8.230;2022-07-19T04:56:33;101242.91;;;19.35;73.28
37610;BME280;23457;51.966;8.230;2022-07-19T04:58:59;101248.84;;;19.52;73.02
37610;BME280;23457;51.966;8.230;2022-07-19T05:01:26;101243.50;;;19.60;72.98
37610;BME280;23457;51.966;8.230;2022-07-19T05:03:53;101245.16;;;19.67;72.80
37610;BME280;23457;51.966;8.230;2022-07-19T05:06:20;101243.25;;;19.77;72.16
37610;BME280;23457;51.966;8.230;2022-07-19T05:08:46;101245.00;;;19.79;71.33
37610;BME280;23457;51.966;8.230;2022-07-19T05:11:13;101242.28;;;19.85;71.42
37610;BME280;23457;51.966;8.230;2022-07-19T05:13:39;101245.72;;;19.89;69.89
37610;BME280;23457;51.966;8.230;2022-07-19T05:16:06;101237.56;;;20.07;70.03
37610;BME280;23457;51.966;8.230;2022-07-19T05:18:33;101242.69;;;20.18;69.08
37610;BME280;23457;51.966;8.230;2022-07-19T05:20:59;101239.97;;;20.22;68.01
37610;BME280;23457;51.966;8.230;2022-07-19T05:23:26;101238.03;;;20.36;68.23
37610;BME280;23457;51.966;8.230;2022-07-19T05:25:52;101241.22;;;20.57;66.98
37610;BME280;23457;51.966;8.230;2022-07-19T05:28:19;101238.31;;;20.72;66.06
37610;BME280;23457;51.966;8.230;2022-07-19T05:30:46;101236.16;;;20.92;64.69
37610;BME280;23457;51.966;8.230;2022-07-19T05:33:12;101235.81;;;21.12;63.79
37610;BME280;23457;51.966;8.230;2022-07-19T05:35:39;101236.38;;;21.29;63.57
37610;BME280;23457;51.966;8.230;2022-07-19T05:38:06;101233.53;;;21.40;62.28
37610;BME280;23457;51.966;8.230;2022-07-19T05:40:35;101237.59;;;21.56;61.14
37610;BME280;23457;51.966;8.230;2022-07-19T05:43:02;101229.66;;;21.56;60.82
37610;BME280;23457;51.966;8.230;2022-07-19T05:45:28;101231.72;;;21.82;59.29
37610;BME280;23457;51.966;8.230;2022-07-19T05:47:55;101221.75;;;21.95;58.67
37610;BME280;23457;51.966;8.230;2022-07-19T05:50:21;101231.03;;;22.14;58.44
37610;BME280;23457;51.966;8.230;2022-07-19T05:52:48;101237.38;;;22.07;57.01
37610;BME280;23457;51.966;8.230;2022-07-19T05:55:15;101228.19;;;22.23;56.78
37610;BME280;23457;51.966;8.230;2022-07-19T05:57:42;101216.28;;;22.41;55.57
37610;BME280;23457;51.966;8.230;2022-07-19T06:00:09;101227.25;;;22.60;55.77
37610;BME280;23457;51.966;8.230;2022-07-19T06:02:35;101225.94;;;22.79;55.52
37610;BME280;23457;51.966;8.230;2022-07-19T06:05:02;101216.81;;;22.89;54.39
37610;BME280;23457;51.966;8.230;2022-07-19T06:07:29;101223.31;;;23.10;55.13
37610;BME280;23457;51.966;8.230;2022-07-19T06:09:55;101227.91;;;23.03;53.67
37610;BME280;23457;51.966;8.230;2022-07-19T06:12:22;101222.84;;;23.27;52.58
37610;BME280;23457;51.966;8.230;2022-07-19T06:14:49;101220.72;;;23.39;52.93
37610;BME280;23457;51.966;8.230;2022-07-19T06:17:15;101223.19;;;23.44;52.44
37610;BME280;23457;51.966;8.230;2022-07-19T06:19:42;101221.31;;;23.49;51.44
37610;BME280;23457;51.966;8.230;2022-07-19T06:22:08;101221.88;;;23.60;50.63
37610;BME280;23457;51.966;8.230;2022-07-19T06:24:35;101224.09;;;23.75;51.46
37610;BME280;23457;51.966;8.230;2022-07-19T06:27:02;101223.63;;;23.90;50.10
37610;BME280;23457;51.966;8.230;2022-07-19T06:29:28;101225.06;;;24.01;52.01
37610;BME280;23457;51.966;8.230;2022-07-19T06:31:55;101218.44;;;24.14;49.44
37610;BME280;23457;51.966;8.230;2022-07-19T06:34:21;101223.25;;;24.31;49.34
37610;BME280;23457;51.966;8.230;2022-07-19T06:36:48;101227.28;;;24.42;50.21
37610;BME280;23457;51.966;8.230;2022-07-19T06:39:14;101224.31;;;24.51;48.42
37610;BME280;23457;51.966;8.230;2022-07-19T06:41:41;101217.94;;;24.57;47.72
37610;BME280;23457;51.966;8.230;2022-07-19T06:44:08;101226.09;;;24.77;48.38
37610;BME280;23457;51.966;8.230;2022-07-19T06:46:34;101216.91;;;24.86;49.57
37610;BME280;23457;51.966;8.230;2022-07-19T06:49:01;101222.50;;;25.05;49.24
37610;BME280;23457;51.966;8.230;2022-07-19T06:51:28;101223.06;;;25.13;47.60
37610;BME280;23457;51.966;8.230;2022-07-19T06:53:54;101223.34;;;25.30;47.20
37610;BME280;23457;51.966;8.230;2022-07-19T06:56:21;101214.59;;;25.50;47.13
37610;BME280;23457;51.966;8.230;2022-07-19T06:58:48;101216.34;;;25.51;46.28
37610;BME280;23457;51.966;8.230;2022-07-19T07:01:14;101221.50;;;25.79;46.17
37610;BME280;23457;51.966;8.230;2022-07-19T07:03:41;101219.84;;;25.98;46.38
37610;BME280;23457;51.966;8.230;2022-07-19T07:06:08;101216.06;;;26.03;44.88
37610;BME280;23457;51.966;8.230;2022-07-19T07:08:34;101216.78;;;26.30;45.86
37610;BME280;23457;51.966;8.230;2022-07-19T07:11:01;101217.66;;;26.31;45.84
37610;BME280;23457;51.966;8.230;2022-07-19T07:13:28;101218.13;;;26.40;46.39
37610;BME280;23457;51.966;8.230;2022-07-19T07:15:55;101220.44;;;26.28;46.15
37610;BME280;23457;51.966;8.230;2022-07-19T07:18:21;101213.34;;;26.27;45.84
37610;BME280;23457;51.966;8.230;2022-07-19T07:20:48;101218.06;;;26.42;46.72
37610;BME280;23457;51.966;8.230;2022-07-19T07:23:14;101212.22;;;26.54;44.50
37610;BME280;23457;51.966;8.230;2022-07-19T07:25:41;101208.31;;;26.83;44.23
37610;BME280;23457;51.966;8.230;2022-07-19T07:28:07;101214.03;;;26.96;45.37
37610;BME280;23457;51.966;8.230;2022-07-19T07:30:34;101202.69;;;26.89;43.61
37610;BME280;23457;51.966;8.230;2022-07-19T07:33:01;101209.72;;;27.12;43.54
37610;BME280;23457;51.966;8.230;2022-07-19T07:35:28;101204.50;;;27.29;43.51
37610;BME280;23457;51.966;8.230;2022-07-19T07:37:54;101193.94;;;27.26;44.60
37610;BME280;23457;51.966;8.230;2022-07-19T07:40:21;101197.34;;;27.48;42.71
37610;BME280;23457;51.966;8.230;2022-07-19T07:42:47;101191.75;;;27.55;43.18
37610;BME280;23457;51.966;8.230;2022-07-19T07:45:14;101202.47;;;27.73;42.07
37610;BME280;23457;51.966;8.230;2022-07-19T07:47:41;101200.34;;;27.80;41.43
37610;BME280;23457;51.966;8.230;2022-07-19T07:50:08;101203.88;;;27.80;42.66
37610;BME280;23457;51.966;8.230;2022-07-19T07:52:35;101198.75;;;27.95;43.29
37610;BME280;23457;51.966;8.230;2022-07-19T07:55:02;101204.03;;;27.96;44.00
37610;BME280;23457;51.966;8.230;2022-07-19T07:57:50;101202.63;;;28.06;42.50
37610;BME280;23457;51.966;8.230;2022-07-19T08:00:16;101196.50;;;28.23;43.70
37610;BME280;23457;51.966;8.230;2022-07-19T08:02:46;101199.91;;;28.44;41.65
37610;BME280;23457;51.966;8.230;2022-07-19T08:05:13;101194.22;;;28.67;41.30
37610;BME280;23457;51.966;8.230;2022-07-19T08:07:40;101197.72;;;28.86;39.85
37610;BME280;23457;51.966;8.230;2022-07-19T08:10:08;101195.38;;;29.13;40.66
37610;BME280;23457;51.966;8.230;2022-07-19T08:12:35;101192.59;;;28.99;40.07
37610;BME280;23457;51.966;8.230;2022-07-19T08:15:02;101202.44;;;28.99;41.50
37610;BME280;23457;51.966;8.230;2022-07-19T08:17:28;101205.56;;;29.07;41.63
37610;BME280;23457;51.966;8.230;2022-07-19T08:19:55;101206.50;;;29.06;39.30
37610;BME280;23457;51.966;8.230;2022-07-19T08:22:21;101203.19;;;29.51;37.27
37610;BME280;23457;51.966;8.230;2022-07-19T08:24:48;101200.41;;;29.52;40.58
37610;BME280;23457;51.966;8.230;2022-07-19T08:27:14;101195.50;;;29.61;37.88
37610;BME280;23457;51.966;8.230;2022-07-19T08:29:41;101196.63;;;29.72;37.21
37610;BME280;23457;51.966;8.230;2022-07-19T08:32:08;101182.91;;;30.10;35.75
37610;BME280;23457;51.966;8.230;2022-07-19T08:34:34;101195.94;;;30.46;34.75
37610;BME280;23457;51.966;8.230;2022-07-19T08:37:01;101192.41;;;30.61;35.04
37610;BME280;23457;51.966;8.230;2022-07-19T08:39:27;101195.38;;;30.71;37.39
37610;BME280;23457;51.966;8.230;2022-07-19T08:41:54;101190.69;;;30.74;35.08
37610;BME280;23457;51.966;8.230;2022-07-19T08:44:22;101195.69;;;30.80;33.81
37610;BME280;23457;51.966;8.230;2022-07-19T08:46:49;101186.53;;;30.98;32.80
37610;BME280;23457;51.966;8.230;2022-07-19T08:49:16;101193.66;;;31.28;33.53
37610;BME280;23457;51.966;8.230;2022-07-19T08:51:43;101189.72;;;31.48;32.99
37610;BME280;23457;51.966;8.230;2022-07-19T08:54:10;101196.31;;;31.56;32.69
37610;BME280;23457;51.966;8.230;2022-07-19T08:56:37;101187.09;;;31.60;32.89
37610;BME280;23457;51.966;8.230;2022-07-19T08:59:24;101195.16;;;31.75;32.21
37610;BME280;23457;51.966;8.230;2022-07-19T09:01:51;101193.25;;;31.77;32.03
37610;BME280;23457;51.966;8.230;2022-07-19T09:04:21;101194.06;;;31.91;33.28
37610;BME280;23457;51.966;8.230;2022-07-19T09:06:55;101186.53;;;31.69;36.40
37610;BME280;23457;51.966;8.230;2022-07-19T09:09:33;101191.81;;;31.98;31.83
37610;BME280;23457;51.966;8.230;2022-07-19T09:12:06;101186.03;;;32.31;30.39
37610;BME280;23457;51.966;8.230;2022-07-19T09:14:34;101191.06;;;32.50;30.77
37610;BME280;23457;51.966;8.230;2022-07-19T09:19:38;101190.38;;;32.73;31.53
37610;BME280;23457;51.966;8.230;2022-07-19T09:22:07;101185.75;;;32.88;30.77
37610;BME280;23457;51.966;8.230;2022-07-19T09:24:37;101183.16;;;32.86;31.21
37610;BME280;23457;51.966;8.230;2022-07-19T09:27:05;101181.56;;;32.96;29.05
37610;BME280;23457;51.966;8.230;2022-07-19T09:29:37;101177.22;;;32.94;30.13
37610;BME280;23457;51.966;8.230;2022-07-19T09:32:11;101182.22;;;33.25;34.63
37610;BME280;23457;51.966;8.230;2022-07-19T09:34:50;101173.81;;;33.30;32.17
37610;BME280;23457;51.966;8.230;2022-07-19T09:39:47;101168.19;;;33.33;30.08
37610;BME280;23457;51.966;8.230;2022-07-19T09:42:16;101163.03;;;33.42;31.57
37610;BME280;23457;51.966;8.230;2022-07-19T09:44:44;101166.22;;;33.48;28.91
37610;BME280;23457;51.966;8.230;2022-07-19T09:47:11;101167.69;;;33.64;28.78
37610;BME280;23457;51.966;8.230;2022-07-19T09:49:39;101169.69;;;33.73;28.50
37610;BME280;23457;51.966;8.230;2022-07-19T09:52:07;101168.03;;;33.96;29.08
37610;BME280;23457;51.966;8.230;2022-07-19T09:54:34;101154.09;;;34.02;33.00
37610;BME280;23457;51.966;8.230;2022-07-19T09:57:01;101148.59;;;34.04;28.04
37610;BME280;23457;51.966;8.230;2022-07-19T09:59:32;101156.50;;;34.18;27.92
37610;BME280;23457;51.966;8.230;2022-07-19T10:02:06;101157.00;;;33.99;27.73
37610;BME280;23457;51.966;8.230;2022-07-19T10:04:33;101157.72;;;34.25;27.68
37610;BME280;23457;51.966;8.230;2022-07-19T10:07:01;101150.13;;;34.43;27.50
37610;BME280;23457;51.966;8.230;2022-07-19T10:09:28;101154.91;;;34.50;27.56
37610;BME280;23457;51.966;8.230;2022-07-19T10:11:56;101156.97;;;34.82;30.11
37610;BME280;23457;51.966;8.230;2022-07-19T10:14:23;101144.06;;;34.97;27.74
37610;BME280;23457;51.966;8.230;2022-07-19T10:19:45;101150.97;;;35.34;27.18
37610;BME280;23457;51.966;8.230;2022-07-19T10:22:15;101133.88;;;35.22;29.85
37610;BME280;23457;51.966;8.230;2022-07-19T10:24:50;101138.69;;;35.19;31.93
37610;BME280;23457;51.966;8.230;2022-07-19T10:32:41;101133.50;;;35.61;27.33
37610;BME280;23457;51.966;8.230;2022-07-19T10:40:48;101125.78;;;35.56;28.60
37610;BME280;23457;51.966;8.230;2022-07-19T10:43:18;101125.16;;;35.52;24.35
37610;BME280;23457;51.966;8.230;2022-07-19T10:51:10;101118.63;;;35.66;27.31
37610;BME280;23457;51.966;8.230;2022-07-19T10:56:20;101117.22;;;36.15;24.32
37610;BME280;23457;51.966;8.230;2022-07-19T11:01:25;101106.16;;;36.18;23.96
37610;BME280;23457;51.966;8.230;2022-07-19T11:03:53;101095.25;;;35.76;24.50
37610;BME280;23457;51.966;8.230;2022-07-19T11:06:27;101099.75;;;36.19;26.12
37610;BME280;23457;51.966;8.230;2022-07-19T11:08:58;101100.31;;;36.54;27.59
37610;BME280;23457;51.966;8.230;2022-07-19T11:11:25;101093.22;;;36.21;24.36
37610;BME280;23457;51.966;8.230;2022-07-19T11:13:56;101096.44;;;36.15;24.46
37610;BME280;23457;51.966;8.230;2022-07-19T11:16:28;101092.66;;;36.59;27.73
37610;BME280;23457;51.966;8.230;2022-07-19T11:19:08;101084.25;;;36.83;23.48
37610;BME280;23457;51.966;8.230;2022-07-19T11:21:36;101090.31;;;36.76;25.75
37610;BME280;23457;51.966;8.230;2022-07-19T11:24:04;101073.69;;;36.80;26.18
37610;BME280;23457;51.966;8.230;2022-07-19T11:26:39;101077.69;;;37.16;23.14
37610;BME280;23457;51.966;8.230;2022-07-19T11:29:13;101072.00;;;36.89;23.38
37610;BME280;23457;51.966;8.230;2022-07-19T11:31:46;101067.31;;;37.01;22.83
37610;BME280;23457;51.966;8.230;2022-07-19T11:34:14;101066.59;;;37.29;22.20
37610;BME280;23457;51.966;8.230;2022-07-19T11:36:41;101068.47;;;36.98;22.70
37610;BME280;23457;51.966;8.230;2022-07-19T11:39:08;101064.75;;;36.99;22.63
37610;BME280;23457;51.966;8.230;2022-07-19T11:41:35;101064.28;;;37.24;21.51
37610;BME280;23457;51.966;8.230;2022-07-19T11:44:06;101062.09;;;37.68;21.81
37610;BME280;23457;51.966;8.230;2022-07-19T11:46:38;101060.09;;;37.89;22.30
37610;BME280;23457;51.966;8.230;2022-07-19T11:49:10;101057.53;;;37.09;22.74
37610;BME280;23457;51.966;8.230;2022-07-19T11:51:37;101054.25;;;37.15;23.29
37610;BME280;23457;51.966;8.230;2022-07-19T11:54:05;101049.97;;;37.13;22.91
37610;BME280;23457;51.966;8.230;2022-07-19T11:56:34;101047.25;;;37.62;23.33
37610;BME280;23457;51.966;8.230;2022-07-19T11:59:04;101044.69;;;37.71;21.63
37610;BME280;23457;51.966;8.230;2022-07-19T12:01:33;101041.84;;;37.72;21.34
37610;BME280;23457;51.966;8.230;2022-07-19T12:04:05;101039.81;;;37.55;20.95
37610;BME280;23457;51.966;8.230;2022-07-19T12:06:39;101040.66;;;38.04;21.60
37610;BME280;23457;51.966;8.230;2022-07-19T12:14:22;101032.66;;;37.35;21.23
37610;BME280;23457;51.966;8.230;2022-07-19T12:19:34;101027.53;;;37.51;21.03
37610;BME280;23457;51.966;8.230;2022-07-19T12:22:00;101026.97;;;37.47;20.84
37610;BME280;23457;51.966;8.230;2022-07-19T12:24:28;101010.84;;;37.46;20.27
37610;BME280;23457;51.966;8.230;2022-07-19T12:32:03;101003.72;;;37.64;20.55
37610;BME280;23457;51.966;8.230;2022-07-19T12:34:50;100990.41;;;37.51;20.48
37610;BME280;23457;51.966;8.230;2022-07-19T12:37:34;101002.97;;;38.00;20.30
37610;BME280;23457;51.966;8.230;2022-07-19T12:40:09;101004.31;;;38.43;22.86
37610;BME280;23457;51.966;8.230;2022-07-19T12:45:09;100991.84;;;38.13;20.03
37610;BME280;23457;51.966;8.230;2022-07-19T12:47:36;100992.28;;;38.09;19.70
37610;BME280;23457;51.966;8.230;2022-07-19T12:50:05;100985.78;;;38.29;19.97
37610;BME280;23457;51.966;8.230;2022-07-19T12:52:38;100990.13;;;38.22;20.11
37610;BME280;23457;51.966;8.230;2022-07-19T12:55:04;100997.59;;;38.47;25.61
37610;BME280;23457;51.966;8.230;2022-07-19T12:57:31;100989.66;;;38.26;19.49
37610;BME280;23457;51.966;8.230;2022-07-19T12:59:59;100995.59;;;38.49;19.68
37610;BME280;23457;51.966;8.230;2022-07-19T13:02:26;100987.78;;;38.27;21.44
37610;BME280;23457;51.966;8.230;2022-07-19T13:04:52;100989.50;;;38.75;21.08
37610;BME280;23457;51.966;8.230;2022-07-19T13:07:19;100986.03;;;38.45;19.93
37610;BME280;23457;51.966;8.230;2022-07-19T13:09:46;100977.28;;;38.61;19.35
37610;BME280;23457;51.966;8.230;2022-07-19T13:12:12;100968.16;;;38.80;19.54
37610;BME280;23457;51.966;8.230;2022-07-19T13:14:39;100976.09;;;39.00;21.77
37610;BME280;23457;51.966;8.230;2022-07-19T13:17:06;100975.44;;;39.52;21.29
37610;BME280;23457;51.966;8.230;2022-07-19T13:19:40;100984.41;;;39.34;19.55
37610;BME280;23457;51.966;8.230;2022-07-19T13:22:07;100972.22;;;38.66;19.87
37610;BME280;23457;51.966;8.230;2022-07-19T13:24:34;100958.97;;;38.16;20.32
37610;BME280;23457;51.966;8.230;2022-07-19T13:27:20;100972.53;;;39.00;20.45
37610;BME280;23457;51.966;8.230;2022-07-19T13:29:47;100962.19;;;39.21;19.82
37610;BME280;23457;51.966;8.230;2022-07-19T13:32:13;100945.13;;;39.47;21.20
37610;BME280;23457;51.966;8.230;2022-07-19T13:34:41;100970.66;;;39.71;20.57
37610;BME280;23457;51.966;8.230;2022-07-19T13:37:08;100962.34;;;39.73;22.20
37610;BME280;23457;51.966;8.230;2022-07-19T13:39:35;100961.28;;;40.09;18.44